Aérodrome :
LOGIN :

S'inscrire | Disclaimer

   EN    FR    IT 

 










Légende :    VFR   VFR Marginal   IFR   IFR Intensif   IFR Très Intensif
Visi : 
Plafond : 
>= 8 km
>= 3000ft
5 à 8 km
1000 à 3000 ft
1500m à 5 km
500 à 1000 ft
800 à 1500m
200 à 500 ft
< 800m
< 200 ft
Symboles :   Orages  Brouillard  Fortes neiges  Fortes précipitations  Vent > 20 kt
SIGMETs :   Divers  Orages  Givrage  Turbulence  Onde Orograph.  Cendres Volcan.







- Altitude de l'aérodrome : 55 ft
- Voir les cartes d'approche


EGNO - Warton Preston

DERNIER METAR :
  • 220850Z 10005KT 8000 SCT033 01/00 Q1025

METARs EXPIRÉS :
  • 220820Z 09004KT 8000 SCT034 M01/M01 Q1025
  • 220750Z 08004KT 8000 FEW036 M01/M02 Q1025
  • 220720Z 08004KT 8000 FEW035 M01/M02 Q1025
  • 220650Z 07004KT 8000 FEW035 01/M00 Q1025

TAF TAF EGNO
Valide du 22 à 09h jusqu'au 22 à 18h UTC


220801Z 2209/2218 10008KT 9999 SCT030
TEMPO 2209/2210 8000
ATIS : +44 1772 856 060
Pas de NOTAMs connus pour ce terrain.



MET'MAP, la Météo Aéronautique d'un coup d'oeil ! - Copyright ORBIFLY Décembre 2007 - Disclaimer

ORBIFLY MET'MAP TEAM :

Programmation & Développement : Alexandra Zaïnal
Conception & Développement : Baudouin d'Aumeries
Co-Programmation & Développement : Marc-Olivier Méhu
Soutien technique & logistique : Manuel Goepfert

Contact : metmap@orbifly.com




SOURCES & CREDITS :

   NOAA